Weather at Torre Picasso Heliport

Public forecast

Using degrees Celsius for public forecast. Weather courtesy of forecast.io.

Closest aviation weather report (METAR) to Torre Picasso Heliport

Closest report is Adolfo Suárez Madrid–Barajas Airport, 6.1 nm (11.3 km) ENE. Retrieved 2021/04/14 02:00 UTC (41 seconds ago):

LEMD 140200Z 33004KT 9999 BKN065 10/08 Q1019 NOSIG

Closest aviation forecast (TAF) to Torre Picasso Heliport

Closest forecast is Adolfo Suárez Madrid–Barajas Airport, 6.1 nm (11.3 km) ENE. Retrieved 2021-04-14 00:27 UTC (2 hours ago):

TAF LEMD 132300Z 1400/1506 02006KT 9999 SCT040 BKN055 TX20/1415Z TN08/1406Z BECMG 1406/1407 09008KT BECMG 1412/1413 14008KT PROB30 TEMPO 1413/1418 FEW025TCU BECMG 1419/1420 07007KT